• Join FlightAware (Why Join?)
  • Login
  • US Flag 
11:49PM EDT


 

Airport Tracker/Info


-or-


 

Live Flight TrackerFlight Track Log ✈ N978AC ✈ 26-Nov-2013 ✈ KMTH - KAPF

Flight Track Log - Related Links

Times and Time Zones

All times are in EST time to prevent confusion due to time zone crossing. See the N978AC flight status page for this flight to view local times or setup timezone preferences in your user account.

Time Position Orientation Groundspeed Altitude Reporting Facility
EST Latitude Longitude Course Direction KTS MPH feet Rate Location/Type
11:30AM 24.8106 -81.0661 336° Northwest 112 129 2,200  Level Miami Center
11:31AM 24.8331 -81.0875 319° Northwest 112 129 2,800 540 Climbing Miami Center
11:32AM 24.8575 -81.1044 328° Northwest 112 129 3,300 480 Climbing Miami Center
11:33AM 24.8906 -81.1169 341° North 112 129 3,800 420 Climbing Miami Center
11:34AM 24.8802 -81.1234 336° Northwest  Level FlightAware Approximate
11:34AM 24.9194 -81.1272 342° North 112 129 4,200  Level Miami Center
11:35AM 24.9528 -81.1375 344° North 112 129 4,200 -60 Level Miami Center
11:36AM 24.9883 -81.1342 North 117 135 4,100  Descending Miami Center
11:37AM 25.0219 -81.1217 19° North 122 140 4,200  Climbing Miami Center
11:38AM 25.0556 -81.1181 North 122 140 4,100  Descending Miami Center
11:39AM 25.0931 -81.1239 352° North 122 140 4,200  Climbing Miami Center
11:40AM 25.1242 -81.1275 354° North 122 140 4,100 -60 Descending Miami Center
11:41AM 25.1636 -81.1381 346° North 122 140 4,100  Level Miami Center
11:42AM 25.1989 -81.1483 345° North 122 140 4,100  Level Miami Center
11:43AM 25.2300 -81.1564 347° North 122 140 4,100  Level Miami Center
11:44AM 25.2653 -81.1644 348° North 122 140 4,200  Climbing Miami Center
11:45AM 25.2986 -81.1656 358° North 122 140 4,200 -60 Level Miami Center
11:46AM 25.3342 -81.1578 11° North 122 140 4,100 -60 Descending Miami Center
11:47AM 25.3678 -81.1519 North 122 140 4,100  Level Miami Center
11:48AM 25.4031 -81.1600 348° North 122 140 4,200  Climbing Miami Center
11:49AM 25.4342 -81.1681 347° North 122 140 4,200  Level Miami Center
11:50AM 25.4717 -81.1764 349° North 122 140 4,200  Level Miami Center
11:51AM 25.5047 -81.1867 344° North 122 140 4,200 -60 Level Miami Center
11:52AM 25.5419 -81.1972 346° North 122 140 4,100 -60 Descending Miami Center
11:53AM 25.5753 -81.1986 358° North 122 140 4,100  Level Miami Center
11:54AM 25.6111 -81.1928 North 122 140 4,100  Level Miami Center
11:55AM 25.6444 -81.1942 358° North 122 140 4,100  Level Miami Center
11:56AM 25.6797 -81.2000 352° North 122 140 4,200  Climbing Miami Center
11:57AM 25.7108 -81.2081 347° North 122 140 4,100  Descending Miami Center
11:58AM 25.7461 -81.2117 355° North 122 140 4,200 -60 Climbing Miami Center
11:59AM 25.7842 -81.2014 14° North 122 140 4,000 -60 Descending Miami Center
12:00PM 25.8153 -81.2072 350° North 122 140 4,100  Climbing Miami Center
12:01PM 25.8506 -81.2153 348° North 122 140 4,100 -60 Level Miami Center
12:02PM 25.8769 -81.2347 326° Northwest 117 135 4,000 -60 Descending Miami Center
12:03PM 25.8889 -81.2628 295° West 103 119 4,000  Level Miami Center
12:04PM 25.9089 -81.2914 308° West 113 130 4,100  Climbing Miami Center
12:05PM 25.9183 -81.3172 292° West 120 138 4,100 -60 Level Miami Center
12:06PM 25.9383 -81.3503 304° West 120 138 4,000  Descending Miami Center
12:07PM 25.9519 -81.3783 298° West 120 138 4,100  Climbing Miami Center
12:08PM 25.9636 -81.4136 290° West 120 138 4,000 -60 Descending Miami Center
12:09PM 25.9772 -81.4417 298° West 114 131 4,000  Level Miami Center
12:10PM 25.9931 -81.4747 298° West 114 131 4,100 -240 Climbing Miami Center
12:11PM 26.0214 -81.4967 325° Northwest 114 131 3,600 -540 Descending Miami Center
12:12PM 26.0522 -81.5186 327° Northwest 124 143 3,100 -540 Descending Miami Center
12:14PM 26.0747 -81.5760 303° West  Level Estimated
12:21PM 26.1500 -81.7667 North  Level FlightAware Approximate
12:22PM 26.1524 -81.7756 North  Level Estimated
12:23PM 26.1524 -81.7756 North  Level Estimated
12:24PM 26.1524 -81.7756 North  Level Estimated
12:25PM 26.1524 -81.7756 North  Level Estimated
12:26PM 26.1524 -81.7756 North  Level Estimated
12:27PM 26.1524 -81.7756 North  Level Estimated
12:28PM 26.1524 -81.7756 North  Level Estimated
12:29PM 26.1524 -81.7756 North  Level Estimated
12:30PM 26.1524 -81.7756 North  Level Estimated
12:31PM 26.1524 -81.7756 North  Level Estimated
12:32PM 26.1524 -81.7756 North  Level Estimated
12:33PM 26.1524 -81.7756 North  Level Estimated